Two Hills, Canada
Current Conditions -  °F | °C
As of 3:00 PM on Wednesday 28 Jan 2015 (Local Time) from CYED Reporting Station
Broken Clouds Broken Clouds  
Wind Chill: 23°   Ceiling: 700
Heat Index: 23°   Visibility: 15mi
Dew Point: 16°   Wind: 2mph
Humidity: 74%   Direction: 340°NNW
Pressure: 30.29"   Gusts: NA
Location:  53.72°N, 111.75°W
Report Text: CYED 282200Z 34002KT 15SM BKN007 BKN014 M05/M09 A3029 RMK SF6SC1 DA-94FT CIG VRB 5-10 SLP295
Loading
Personal Weather Stations






























Interactive Weather Map New forecast layout! Learn more

10-Day Weather Forecast

Advertisements
Track Severe Weather on mobile